createdAt,value
2022-10-11T00:01:05.564Z,0.70
2022-10-11T00:03:34.087Z,0.60
2022-10-11T00:06:04.840Z,0.70
2022-10-11T00:08:34.885Z,0.60
2022-10-11T00:11:06.153Z,0.50
2022-10-11T00:13:34.669Z,0.93
2022-10-11T00:16:08.430Z,0.90
2022-10-11T00:18:37.713Z,0.73
2022-10-11T00:21:10.642Z,0.90
2022-10-11T00:23:39.758Z,0.50
2022-10-11T00:26:10.613Z,0.50
2022-10-11T00:28:39.575Z,0.60
2022-10-11T00:31:14.858Z,0.50
2022-10-11T00:33:43.370Z,0.60
2022-10-11T00:36:15.043Z,0.63
2022-10-11T00:38:43.575Z,0.65
2022-10-11T00:41:12.460Z,0.70
2022-10-11T00:43:41.377Z,0.50
2022-10-11T00:46:31.337Z,0.43
2022-10-11T00:49:11.045Z,0.55
2022-10-11T00:51:52.331Z,0.50
2022-10-11T00:54:26.978Z,0.63
2022-10-11T00:57:01.375Z,0.50
2022-10-11T00:59:33.191Z,0.60
2022-10-11T01:02:01.860Z,0.50
2022-10-11T01:04:30.024Z,0.50
2022-10-11T01:06:59.542Z,0.50
2022-10-11T01:09:28.720Z,0.60
2022-10-11T01:12:02.672Z,0.70
2022-10-11T01:15:08.363Z,0.57
2022-10-11T01:17:57.858Z,0.60
2022-10-11T01:20:58.034Z,0.70
2022-10-11T01:24:08.164Z,0.57
2022-10-11T01:26:36.771Z,0.70
2022-10-11T01:29:39.939Z,1.00
2022-10-11T01:32:26.059Z,0.63
2022-10-11T01:35:14.593Z,0.68
2022-10-11T01:37:53.459Z,0.60
2022-10-11T01:40:37.038Z,0.52
2022-10-11T01:43:07.371Z,0.70
2022-10-11T01:45:37.092Z,0.70
2022-10-11T01:48:12.125Z,0.60
2022-10-11T01:50:52.294Z,0.85
2022-10-11T01:53:26.539Z,0.57
2022-10-11T01:56:19.307Z,0.50
2022-10-11T01:58:53.609Z,0.50
2022-10-11T02:01:40.381Z,0.70
2022-10-11T02:04:20.847Z,0.57
2022-10-11T02:07:21.898Z,0.57
2022-10-11T02:10:05.129Z,0.50
2022-10-11T02:12:39.172Z,0.50
2022-10-11T02:15:11.116Z,0.50
2022-10-11T02:17:49.315Z,0.40
2022-10-11T02:20:22.862Z,0.65
2022-10-11T02:22:54.939Z,0.50
2022-10-11T02:25:29.064Z,0.50
2022-10-11T02:28:02.477Z,0.50
2022-10-11T02:30:32.718Z,0.45
2022-10-11T02:33:07.316Z,0.50
2022-10-11T02:35:40.783Z,0.50
2022-10-11T02:38:26.248Z,0.70
2022-10-11T02:41:14.308Z,0.60
2022-10-11T02:43:49.375Z,0.50
2022-10-11T02:46:18.597Z,0.60
2022-10-11T02:48:47.187Z,0.60
2022-10-11T02:51:16.379Z,0.40
2022-10-11T02:53:44.998Z,0.50
2022-10-11T02:56:13.595Z,0.50
2022-10-11T02:58:42.180Z,0.50
2022-10-11T03:01:10.871Z,0.60
2022-10-11T03:03:39.420Z,0.60
2022-10-11T03:06:08.326Z,0.70
2022-10-11T03:08:37.160Z,0.50
2022-10-11T03:11:05.956Z,0.50
2022-10-11T03:13:34.548Z,0.50
2022-10-11T03:16:03.887Z,0.50
2022-10-11T03:18:32.939Z,0.65
2022-10-11T03:21:01.841Z,0.70
2022-10-11T03:23:30.915Z,0.50
2022-10-11T03:25:59.469Z,0.50
2022-10-11T03:28:28.087Z,0.50
2022-10-11T03:30:56.673Z,0.50
2022-10-11T03:33:25.064Z,0.50
2022-10-11T03:35:53.570Z,0.50
2022-10-11T03:38:23.874Z,0.50
2022-10-11T03:40:52.954Z,0.60
2022-10-11T03:43:21.752Z,0.70
2022-10-11T03:45:50.135Z,0.50
2022-10-11T03:48:18.625Z,0.50
2022-10-11T03:50:47.100Z,0.60
2022-10-11T03:53:15.718Z,0.60
2022-10-11T03:55:47.216Z,0.60
2022-10-11T03:58:15.807Z,0.50
2022-10-11T04:00:44.304Z,0.73
2022-10-11T04:03:12.884Z,0.73
2022-10-11T04:05:41.214Z,0.60
2022-10-11T04:08:12.072Z,0.60
2022-10-11T04:10:41.703Z,0.50
2022-10-11T04:13:12.500Z,0.60
2022-10-11T04:15:42.708Z,0.70
2022-10-11T04:18:11.278Z,0.73
2022-10-11T04:20:40.268Z,0.70
2022-10-11T04:23:08.941Z,0.60
2022-10-11T04:25:40.544Z,0.60
2022-10-11T04:28:09.999Z,0.88
2022-10-11T04:30:38.634Z,0.73
2022-10-11T04:33:07.102Z,0.82
2022-10-11T04:35:35.872Z,0.70
2022-10-11T04:38:04.350Z,0.80
2022-10-11T04:40:33.204Z,0.70
2022-10-11T04:43:01.833Z,0.60
2022-10-11T04:45:30.441Z,0.93
2022-10-11T04:47:58.994Z,0.77
2022-10-11T04:50:27.554Z,1.10
2022-10-11T04:52:56.079Z,0.70
2022-10-11T04:55:24.552Z,0.80
2022-10-11T04:57:53.165Z,0.80
2022-10-11T05:00:22.144Z,0.88
2022-10-11T05:02:50.656Z,0.70
2022-10-11T05:05:19.048Z,0.75
2022-10-11T05:07:47.563Z,0.80
2022-10-11T05:10:16.301Z,0.85
2022-10-11T05:12:44.873Z,0.80
2022-10-11T05:15:13.284Z,0.80
2022-10-11T05:17:41.765Z,1.08
2022-10-11T05:20:10.936Z,1.05
2022-10-11T05:22:39.695Z,0.93
2022-10-11T05:25:08.109Z,0.80
2022-10-11T05:27:39.103Z,0.85
2022-10-11T05:30:07.760Z,0.80
2022-10-11T05:32:36.295Z,1.20
2022-10-11T05:35:04.859Z,0.98
2022-10-11T05:37:33.487Z,0.90
2022-10-11T05:40:02.058Z,0.90
2022-10-11T05:42:30.476Z,0.88
2022-10-11T05:44:58.992Z,0.93
2022-10-11T05:47:27.568Z,1.10
2022-10-11T05:49:56.081Z,1.10
2022-10-11T05:52:24.559Z,0.95
2022-10-11T05:54:53.648Z,1.50
2022-10-11T05:57:22.091Z,1.40
2022-10-11T05:59:50.626Z,1.33
2022-10-11T06:02:19.137Z,1.30
2022-10-11T06:04:47.886Z,1.20
2022-10-11T06:07:16.349Z,1.13
2022-10-11T06:09:44.828Z,1.23
2022-10-11T06:12:13.416Z,1.35
2022-10-11T06:14:41.883Z,1.20
2022-10-11T06:17:10.416Z,1.35
2022-10-11T06:19:39.050Z,1.40
2022-10-11T06:22:07.527Z,1.52
2022-10-11T06:24:36.079Z,1.15
2022-10-11T06:27:04.658Z,1.27
2022-10-11T06:29:33.189Z,1.35
2022-10-11T06:32:01.748Z,1.10
2022-10-11T06:34:30.381Z,1.40
2022-10-11T06:36:58.920Z,1.40
2022-10-11T06:39:27.479Z,1.38
2022-10-11T06:41:55.956Z,1.10
2022-10-11T06:44:24.424Z,1.42
2022-10-11T06:46:52.930Z,1.60
2022-10-11T06:49:23.449Z,1.30
2022-10-11T06:51:52.699Z,1.20
2022-10-11T06:54:21.401Z,1.58
2022-10-11T06:56:49.851Z,1.10
2022-10-11T06:59:18.449Z,1.73
2022-10-11T07:01:47.016Z,1.38
2022-10-11T07:04:15.557Z,1.60
2022-10-11T07:06:44.110Z,1.70
2022-10-11T07:09:12.841Z,1.30
2022-10-11T07:11:41.353Z,1.30
2022-10-11T07:14:11.115Z,1.42
2022-10-11T07:16:39.762Z,1.30
2022-10-11T07:19:08.904Z,1.40
2022-10-11T07:21:38.244Z,1.20
2022-10-11T07:24:07.216Z,1.30
2022-10-11T07:26:38.859Z,1.40
2022-10-11T07:29:12.257Z,1.30
2022-10-11T07:31:42.732Z,1.15
2022-10-11T07:34:12.367Z,1.08
2022-10-11T07:36:40.945Z,1.20
2022-10-11T07:39:10.301Z,1.10
2022-10-11T07:41:45.392Z,1.10
2022-10-11T07:44:14.946Z,1.08
2022-10-11T07:46:42.997Z,1.17
2022-10-11T07:49:11.134Z,1.00
2022-10-11T07:51:39.625Z,1.08
2022-10-11T07:54:08.194Z,0.93
2022-10-11T07:56:38.176Z,0.80
2022-10-11T07:59:07.050Z,1.00
2022-10-11T08:01:35.856Z,0.95
2022-10-11T08:04:04.290Z,0.70
2022-10-11T08:06:33.818Z,0.73
2022-10-11T08:09:03.056Z,0.82
2022-10-11T08:11:37.250Z,0.90
2022-10-11T08:14:10.186Z,0.88
2022-10-11T08:16:40.426Z,1.45
2022-10-11T08:19:09.263Z,0.80
2022-10-11T08:21:38.111Z,0.70
2022-10-11T08:24:07.934Z,0.90
2022-10-11T08:26:36.644Z,0.80
2022-10-11T08:29:06.479Z,0.80
2022-10-11T08:31:36.177Z,0.70
2022-10-11T08:34:04.734Z,0.93
2022-10-11T08:36:33.618Z,0.73
2022-10-11T08:39:02.791Z,0.80
2022-10-11T08:41:51.490Z,0.80
2022-10-11T08:45:09.501Z,0.77
2022-10-11T08:47:45.984Z,0.77
2022-10-11T08:50:23.850Z,0.90
2022-10-11T08:53:07.433Z,0.60
2022-10-11T08:55:48.662Z,1.00
2022-10-11T08:58:23.526Z,1.15
2022-10-11T09:00:56.325Z,0.75
2022-10-11T09:03:39.598Z,0.60
2022-10-11T09:06:14.587Z,0.60
2022-10-11T09:08:58.733Z,0.77
2022-10-11T09:11:46.152Z,0.73
2022-10-11T09:14:46.299Z,0.60
2022-10-11T09:17:35.824Z,0.55
2022-10-11T09:20:41.616Z,0.60
2022-10-11T09:23:35.951Z,0.50
2022-10-11T09:26:09.639Z,0.70
2022-10-11T09:29:09.732Z,0.60
2022-10-11T09:31:38.309Z,0.52
2022-10-11T09:34:15.916Z,0.60
2022-10-11T09:37:11.841Z,0.65
2022-10-11T09:39:47.302Z,0.73
2022-10-11T09:42:15.865Z,0.60
2022-10-11T09:44:49.351Z,0.75
2022-10-11T09:47:25.611Z,0.50
2022-10-11T09:50:05.513Z,0.63
2022-10-11T09:52:35.232Z,0.60
2022-10-11T09:55:04.743Z,0.60
2022-10-11T09:57:44.096Z,0.65
2022-10-11T10:00:33.567Z,0.60
2022-10-11T10:03:05.922Z,0.60
2022-10-11T10:05:39.771Z,0.73
2022-10-11T10:08:11.050Z,0.60
2022-10-11T10:11:10.225Z,0.65
2022-10-11T10:13:42.697Z,0.60
2022-10-11T10:16:27.048Z,0.50
2022-10-11T10:19:08.781Z,0.63
2022-10-11T10:21:51.251Z,0.70
2022-10-11T10:24:43.871Z,0.70
2022-10-11T10:27:12.586Z,0.52
2022-10-11T10:29:41.192Z,0.60
2022-10-11T10:32:28.117Z,0.60
2022-10-11T10:35:28.700Z,0.77
2022-10-11T10:38:19.790Z,0.60
2022-10-11T10:40:53.907Z,0.60
2022-10-11T10:43:27.024Z,0.60
2022-10-11T10:46:47.713Z,0.60
2022-10-11T10:52:40.777Z,0.57
2022-10-11T10:55:36.464Z,0.60
2022-10-11T10:58:19.902Z,0.60
2022-10-11T11:00:51.834Z,0.63
2022-10-11T11:03:37.168Z,0.60
2022-10-11T11:06:13.788Z,0.57
2022-10-11T11:08:59.227Z,0.60
2022-10-11T11:11:49.247Z,0.60
2022-10-11T11:14:32.059Z,0.60
2022-10-11T11:17:09.427Z,0.70
2022-10-11T11:20:05.897Z,0.60
2022-10-11T11:22:54.981Z,0.63
2022-10-11T11:25:58.748Z,0.90
2022-10-11T11:28:51.397Z,0.73
2022-10-11T11:31:50.602Z,0.70
2022-10-11T11:34:33.479Z,0.60
2022-10-11T11:37:04.851Z,0.50
2022-10-11T11:39:40.669Z,0.70
2022-10-11T11:42:30.558Z,0.60
2022-10-11T11:45:14.480Z,0.63
2022-10-11T11:47:46.951Z,0.70
2022-10-11T11:50:29.540Z,0.67
2022-10-11T11:53:08.905Z,0.75
2022-10-11T11:55:53.761Z,0.57
2022-10-11T11:58:40.464Z,0.63
2022-10-11T12:01:40.344Z,0.50
2022-10-11T12:04:24.874Z,0.60
2022-10-11T12:07:17.958Z,0.75
2022-10-11T12:09:52.133Z,0.50
2022-10-11T12:12:37.388Z,0.63
2022-10-11T12:15:12.033Z,0.60
2022-10-11T12:17:58.807Z,0.50
2022-10-11T12:20:39.294Z,0.50
2022-10-11T12:23:30.995Z,0.60
2022-10-11T12:26:29.589Z,0.50
2022-10-11T12:29:28.411Z,0.57
2022-10-11T12:32:00.332Z,0.60
2022-10-11T12:34:45.443Z,0.68
2022-10-11T12:37:19.909Z,0.60
2022-10-11T12:39:55.944Z,0.60
2022-10-11T12:42:32.656Z,0.63
2022-10-11T12:45:16.132Z,0.68
2022-10-11T12:48:36.018Z,0.80
2022-10-11T12:51:24.995Z,0.60
2022-10-11T12:54:29.956Z,0.55
2022-10-11T12:57:21.841Z,0.60
2022-10-11T12:59:51.836Z,0.68
2022-10-11T13:02:45.474Z,0.65
2022-10-11T13:05:31.403Z,0.63
2022-10-11T13:08:04.208Z,0.70
2022-10-11T13:10:41.982Z,0.77
2022-10-11T13:13:26.257Z,0.70
2022-10-11T13:15:57.685Z,0.60
2022-10-11T13:18:27.676Z,1.20
2022-10-11T13:20:56.611Z,0.60
2022-10-11T13:23:29.307Z,0.80
2022-10-11T13:25:58.147Z,0.60
2022-10-11T13:28:26.663Z,0.65
2022-10-11T13:30:57.503Z,0.82
2022-10-11T13:33:34.947Z,0.70
2022-10-11T13:36:06.545Z,0.80
2022-10-11T13:38:37.784Z,0.73
2022-10-11T13:41:09.090Z,0.63
2022-10-11T13:43:38.644Z,0.70
2022-10-11T13:46:07.734Z,0.70
2022-10-11T13:48:42.428Z,0.80
2022-10-11T13:51:34.182Z,0.70
2022-10-11T13:54:04.408Z,0.80
2022-10-11T13:56:37.931Z,0.80
2022-10-11T13:59:06.656Z,0.70
2022-10-11T14:01:45.584Z,0.80
2022-10-11T14:04:19.446Z,0.82
2022-10-11T14:06:47.273Z,0.77
2022-10-11T14:09:24.145Z,0.85
2022-10-11T14:11:54.552Z,0.60
2022-10-11T14:14:32.331Z,0.60
2022-10-11T14:17:17.189Z,0.70
2022-10-11T14:19:48.500Z,0.60
2022-10-11T14:22:19.650Z,0.60
2022-10-11T14:24:51.185Z,0.60
2022-10-11T14:27:24.731Z,0.70
2022-10-11T14:30:20.225Z,0.60
2022-10-11T14:32:43.601Z,0.60
2022-10-11T14:35:26.912Z,0.60
2022-10-11T14:37:55.681Z,1.05
2022-10-11T14:40:27.226Z,0.60
2022-10-11T14:42:56.333Z,0.50
2022-10-11T14:45:25.569Z,0.82
2022-10-11T14:47:53.926Z,0.70
2022-10-11T14:50:54.442Z,0.80
2022-10-11T14:53:23.603Z,0.70
2022-10-11T14:55:52.075Z,0.70
2022-10-11T14:58:21.106Z,1.00
2022-10-11T15:00:49.669Z,0.80
2022-10-11T15:03:18.241Z,0.73
2022-10-11T15:05:46.731Z,0.80
2022-10-11T15:08:16.070Z,0.73
2022-10-11T15:10:44.493Z,0.93
2022-10-11T15:13:13.085Z,0.75
2022-10-11T15:15:42.907Z,1.02
2022-10-11T15:18:17.827Z,0.73
2022-10-11T15:20:47.591Z,0.98
2022-10-11T15:23:16.264Z,1.10
2022-10-11T15:25:47.619Z,1.00
2022-10-11T15:28:36.344Z,0.82
2022-10-11T15:31:04.925Z,0.88
2022-10-11T15:33:33.376Z,1.02
2022-10-11T15:36:01.823Z,1.00
2022-10-11T15:38:30.349Z,0.98
2022-10-11T15:41:00.583Z,1.35
2022-10-11T15:43:28.880Z,1.10
2022-10-11T15:45:58.965Z,0.90
2022-10-11T15:48:28.549Z,1.00
2022-10-11T15:50:57.305Z,1.00
2022-10-11T15:53:29.859Z,1.10
2022-10-11T15:56:07.117Z,0.80
2022-10-11T15:58:38.803Z,1.27
2022-10-11T16:01:09.843Z,1.17
2022-10-11T16:03:38.532Z,1.00
2022-10-11T16:06:07.563Z,1.45
2022-10-11T16:08:36.599Z,1.20
2022-10-11T16:11:06.666Z,1.05
2022-10-11T16:13:35.783Z,1.10
2022-10-11T16:16:06.126Z,1.10
2022-10-11T16:18:35.833Z,1.38
2022-10-11T16:21:12.331Z,1.48
2022-10-11T16:23:41.258Z,1.00
2022-10-11T16:26:13.331Z,1.40
2022-10-11T16:28:43.183Z,1.20
2022-10-11T16:31:15.954Z,1.60
2022-10-11T16:33:46.968Z,1.50
2022-10-11T16:36:36.671Z,1.40
2022-10-11T16:39:13.523Z,1.30
2022-10-11T16:41:43.187Z,1.55
2022-10-11T16:44:16.378Z,1.20
2022-10-11T16:46:49.455Z,1.10
2022-10-11T16:49:20.871Z,1.52
2022-10-11T16:51:49.710Z,1.10
2022-10-11T16:54:20.660Z,1.40
2022-10-11T16:56:50.419Z,1.40
2022-10-11T16:59:19.469Z,1.13
2022-10-11T17:01:47.940Z,1.10
2022-10-11T17:04:17.092Z,1.83
2022-10-11T17:06:46.038Z,1.05
2022-10-11T17:09:14.816Z,1.30
2022-10-11T17:11:43.472Z,1.50
2022-10-11T17:14:13.632Z,1.45
2022-10-11T17:16:42.319Z,1.45
2022-10-11T17:19:13.679Z,1.23
2022-10-11T17:21:43.240Z,1.30
2022-10-11T17:24:11.741Z,1.15
2022-10-11T17:26:40.068Z,1.30
2022-10-11T17:29:08.553Z,1.45
2022-10-11T17:31:39.660Z,1.40
2022-10-11T17:34:08.234Z,1.38
2022-10-11T17:36:36.839Z,1.60
2022-10-11T17:39:08.831Z,1.50
2022-10-11T17:41:37.280Z,1.27
2022-10-11T17:44:06.489Z,1.50
2022-10-11T17:46:35.290Z,1.20
2022-10-11T17:49:07.877Z,1.45
2022-10-11T17:51:37.743Z,2.22
2022-10-11T17:54:07.082Z,1.83
2022-10-11T17:56:38.186Z,1.15
2022-10-11T17:59:07.495Z,1.40
2022-10-11T18:01:36.610Z,1.67
2022-10-11T18:04:07.363Z,1.60
2022-10-11T18:06:41.324Z,1.40
2022-10-11T18:09:09.831Z,1.90
2022-10-11T18:11:38.577Z,1.73
2022-10-11T18:14:06.947Z,1.40
2022-10-11T18:16:36.522Z,2.70
2022-10-11T18:19:09.043Z,2.00
2022-10-11T18:21:39.146Z,1.77
2022-10-11T18:24:19.065Z,1.58
2022-10-11T18:26:48.458Z,1.80
2022-10-11T18:29:17.472Z,1.75
2022-10-11T18:31:46.031Z,2.00
2022-10-11T18:34:15.495Z,1.70
2022-10-11T18:36:44.458Z,2.08
2022-10-11T18:39:16.084Z,2.47
2022-10-11T18:41:45.469Z,2.20
2022-10-11T18:44:16.822Z,1.80
2022-10-11T18:46:46.280Z,2.47
2022-10-11T18:49:15.082Z,1.95
2022-10-11T18:51:44.112Z,1.90
2022-10-11T18:54:20.145Z,2.22
2022-10-11T18:56:50.260Z,2.10
2022-10-11T18:59:19.280Z,2.17
2022-10-11T19:01:49.248Z,2.33
2022-10-11T19:04:17.808Z,1.85
2022-10-11T19:06:51.808Z,1.88
2022-10-11T19:09:23.605Z,2.25
2022-10-11T19:11:54.186Z,1.90
2022-10-11T19:14:26.783Z,2.20
2022-10-11T19:16:56.420Z,2.55
2022-10-11T19:19:28.303Z,2.72
2022-10-11T19:21:57.112Z,2.10
2022-10-11T19:24:27.956Z,2.35
2022-10-11T19:27:01.368Z,1.75
2022-10-11T19:29:31.748Z,2.60
2022-10-11T19:32:02.982Z,1.38
2022-10-11T19:34:33.009Z,1.63
2022-10-11T19:37:05.473Z,1.85
2022-10-11T19:39:34.286Z,1.60
2022-10-11T19:42:03.024Z,1.45
2022-10-11T19:44:35.735Z,1.85
2022-10-11T19:47:07.424Z,1.40
2022-10-11T19:49:35.975Z,1.40
2022-10-11T19:52:04.416Z,2.13
2022-10-11T19:54:33.324Z,1.50
2022-10-11T19:57:01.931Z,1.60
2022-10-11T19:59:29.951Z,1.15
2022-10-11T20:01:58.400Z,1.00
2022-10-11T20:04:51.689Z,1.63
2022-10-11T20:07:15.386Z,1.40
2022-10-11T20:09:43.782Z,2.22
2022-10-11T20:12:12.278Z,1.77
2022-10-11T20:14:40.427Z,1.40
2022-10-11T20:17:08.959Z,1.70
2022-10-11T20:19:37.541Z,2.05
2022-10-11T20:22:06.219Z,1.45
2022-10-11T20:24:35.700Z,1.58
2022-10-11T20:27:06.538Z,1.40
2022-10-11T20:29:35.100Z,1.80
2022-10-11T20:32:03.654Z,1.50
2022-10-11T20:34:32.218Z,1.42
2022-10-11T20:37:00.710Z,1.42
2022-10-11T20:39:29.429Z,1.13
2022-10-11T20:41:57.857Z,1.60
2022-10-11T20:44:26.224Z,1.90
2022-10-11T20:46:54.848Z,2.20
2022-10-11T20:49:23.849Z,1.83
2022-10-11T20:51:52.394Z,1.50
2022-10-11T20:54:20.946Z,1.70
2022-10-11T20:56:49.416Z,1.60
2022-10-11T20:59:17.909Z,1.20
2022-10-11T21:01:46.496Z,1.52
2022-10-11T21:04:20.437Z,1.25
2022-10-11T21:06:50.365Z,1.33
2022-10-11T21:09:19.109Z,1.52
2022-10-11T21:11:47.883Z,1.30
2022-10-11T21:14:16.531Z,2.10
2022-10-11T21:16:45.072Z,1.30
2022-10-11T21:19:16.451Z,1.17
2022-10-11T21:21:52.535Z,1.50
2022-10-11T21:24:22.871Z,1.92
2022-10-11T21:26:51.489Z,2.03
2022-10-11T21:29:20.286Z,1.48
2022-10-11T21:31:48.775Z,1.13
2022-10-11T21:34:17.113Z,1.40
2022-10-11T21:36:45.670Z,1.20
2022-10-11T21:39:17.320Z,1.08
2022-10-11T21:41:45.785Z,1.30
2022-10-11T21:44:14.273Z,1.10
2022-10-11T21:47:05.446Z,1.15
2022-10-11T21:49:31.334Z,1.52
2022-10-11T21:51:59.848Z,1.30
2022-10-11T21:54:28.383Z,1.10
2022-10-11T21:56:56.866Z,1.20
2022-10-11T21:59:25.376Z,1.00
2022-10-11T22:01:56.914Z,0.90
2022-10-11T22:04:27.865Z,1.00
2022-10-11T22:06:56.326Z,1.17
2022-10-11T22:09:24.872Z,1.25
2022-10-11T22:11:53.411Z,1.20
2022-10-11T22:14:22.438Z,1.08
2022-10-11T22:16:50.962Z,1.00
2022-10-11T22:19:19.599Z,1.13
2022-10-11T22:21:48.165Z,1.20
2022-10-11T22:24:17.866Z,1.10
2022-10-11T22:26:46.418Z,1.25
2022-10-11T22:29:14.899Z,0.90
2022-10-11T22:31:43.689Z,0.70
2022-10-11T22:34:12.229Z,0.90
2022-10-11T22:36:40.768Z,1.00
2022-10-11T22:39:09.508Z,2.83
2022-10-11T22:41:39.212Z,1.13
2022-10-11T22:44:07.955Z,1.13
2022-10-11T22:46:36.480Z,1.10
2022-10-11T22:49:04.859Z,1.10
2022-10-11T22:51:33.491Z,1.00
2022-10-11T22:54:01.664Z,1.10
2022-10-11T22:56:29.636Z,1.50
2022-10-11T22:58:59.655Z,1.00
2022-10-11T23:01:28.151Z,1.20
2022-10-11T23:03:57.800Z,1.10
2022-10-11T23:06:26.404Z,1.20
2022-10-11T23:08:54.892Z,1.10
2022-10-11T23:11:23.524Z,1.10
2022-10-11T23:13:52.002Z,1.52
2022-10-11T23:16:20.784Z,1.10
2022-10-11T23:18:49.323Z,1.23
2022-10-11T23:21:18.330Z,1.00
2022-10-11T23:23:46.897Z,1.20
2022-10-11T23:26:17.730Z,1.40
2022-10-11T23:28:46.590Z,1.75
2022-10-11T23:31:17.961Z,1.15
2022-10-11T23:33:47.758Z,1.25
2022-10-11T23:36:21.207Z,1.40
2022-10-11T23:38:54.567Z,1.23
2022-10-11T23:41:30.822Z,1.38
2022-10-11T23:43:59.942Z,1.67
2022-10-11T23:46:28.460Z,2.08
2022-10-11T23:48:57.137Z,1.52
2022-10-11T23:51:25.519Z,1.30
2022-10-11T23:53:54.235Z,1.48
2022-10-11T23:56:22.854Z,1.50
2022-10-11T23:58:50.850Z,1.40
